Time;durP1;ratioP1;P1;durP2;ratioP2;P2;SDS_P1;SDS_P2;PMS_P1;PMS_P2;Temp;Humidity;BMP_temperature;BMP_pressure;BME280_temperature;BME280_humidity;BME280_pressure;Samples;Min_cycle;Max_cycle;Signal;HPM_P1;HPM_P2
2022/02/26 03:11:34;;;;;;;5.80;3.70;;;;;;;;;;5387312;22;20051;-74
2022/02/26 03:14:01;;;;;;;6.33;4.03;;;;;;;;;;5092798;28;20028;-73
2022/02/26 03:16:27;;;;;;;5.70;3.50;;;;;;;;;;4995786;28;2111668;-77
2022/02/26 03:18:54;;;;;;;5.70;3.77;;;;;;;;;;5055172;28;20025;-76
2022/02/26 03:21:21;;;;;;;5.30;3.53;;;;;;;;;;5069805;28;20021;-72
2022/02/26 03:23:47;;;;;;;5.00;3.37;;;;;;;;;;5069942;28;20017;-71
2022/02/26 03:26:14;;;;;;;5.33;3.77;;;;;;;;;;5069634;28;20390;-75
2022/02/26 03:28:41;;;;;;;7.00;4.00;;;;;;;;;;5064315;28;20120;-73
2022/02/26 03:31:07;;;;;;;5.67;3.90;;;;;;;;;;5049565;28;20486;-72
2022/02/26 03:33:34;;;;;;;6.47;4.00;;;;;;;;;;5053300;28;20041;-72
2022/02/26 03:36:01;;;;;;;7.00;3.93;;;;;;;;;;5054880;28;20036;-72
2022/02/26 03:38:28;;;;;;;4.73;2.90;;;;;;;;;;5054489;28;20021;-72
2022/02/26 03:40:54;;;;;;;7.57;3.73;;;;;;;;;;5054709;28;20028;-74
2022/02/26 03:43:21;;;;;;;6.73;3.87;;;;;;;;;;5054690;28;20029;-74
2022/02/26 03:45:48;;;;;;;5.90;3.40;;;;;;;;;;5055734;28;20037;-74
2022/02/26 03:48:15;;;;;;;6.27;3.73;;;;;;;;;;5069292;28;20536;-71
2022/02/26 03:50:42;;;;;;;5.50;3.47;;;;;;;;;;5069131;28;20099;-73
2022/02/26 03:53:09;;;;;;;13.47;7.13;;;;;;;;;;5069148;28;20033;-72
2022/02/26 03:55:36;;;;;;;7.60;4.50;;;;;;;;;;5072188;28;20031;-73
2022/02/26 03:58:03;;;;;;;7.27;4.37;;;;;;;;;;5074482;28;20025;-72
2022/02/26 04:00:30;;;;;;;10.57;4.90;;;;;;;;;;5074375;28;20020;-76
2022/02/26 04:02:56;;;;;;;8.40;4.90;;;;;;;;;;5074642;28;20021;-73
2022/02/26 04:05:23;;;;;;;10.50;5.37;;;;;;;;;;5074234;28;20033;-70
2022/02/26 04:07:50;;;;;;;10.57;5.63;;;;;;;;;;5070608;28;20383;-73
2022/02/26 04:10:16;;;;;;;11.30;5.90;;;;;;;;;;5065123;28;20013;-71
2022/02/26 04:12:43;;;;;;;14.37;5.37;;;;;;;;;;5046776;28;20383;-70
2022/02/26 04:15:10;;;;;;;9.60;5.43;;;;;;;;;;5048878;28;20091;-78
2022/02/26 04:17:37;;;;;;;9.80;4.63;;;;;;;;;;5051553;28;20028;-74
2022/02/26 04:20:04;;;;;;;8.57;4.73;;;;;;;;;;5060012;28;20493;-70
2022/02/26 04:22:30;;;;;;;9.23;5.20;;;;;;;;;;5053651;28;20077;-78
2022/02/26 04:24:57;;;;;;;9.73;5.47;;;;;;;;;;5053474;28;20063;-77
2022/02/26 04:27:24;;;;;;;13.20;4.50;;;;;;;;;;5053897;28;20029;-73
2022/02/26 04:29:50;;;;;;;7.63;4.80;;;;;;;;;;5050369;28;20071;-79
2022/02/26 04:32:17;;;;;;;8.87;4.30;;;;;;;;;;5048715;28;20028;-76
2022/02/26 04:34:44;;;;;;;7.23;5.40;;;;;;;;;;5048163;28;20418;-73
2022/02/26 04:37:10;;;;;;;10.40;4.90;;;;;;;;;;5048290;28;20075;-76
2022/02/26 04:39:37;;;;;;;12.43;6.13;;;;;;;;;;5050651;28;20025;-72
2022/02/26 04:42:04;;;;;;;13.60;6.63;;;;;;;;;;5053648;28;20053;-71
2022/02/26 04:44:31;;;;;;;8.97;5.60;;;;;;;;;;5053776;28;20028;-71
2022/02/26 04:46:57;;;;;;;11.63;6.13;;;;;;;;;;5052855;28;20033;-71
2022/02/26 04:49:24;;;;;;;8.93;5.17;;;;;;;;;;5053422;28;20432;-71
2022/02/26 04:51:51;;;;;;;8.93;4.70;;;;;;;;;;5050972;28;20059;-71
2022/02/26 04:54:18;;;;;;;6.77;4.83;;;;;;;;;;5048067;28;20111;-71
2022/02/26 04:56:45;;;;;;;10.93;4.93;;;;;;;;;;5048074;28;20035;-71
2022/02/26 04:59:11;;;;;;;9.90;5.90;;;;;;;;;;5047832;28;20029;-71
2022/02/26 05:01:38;;;;;;;8.40;4.77;;;;;;;;;;5049441;28;20033;-70
2022/02/26 05:04:05;;;;;;;7.27;4.43;;;;;;;;;;5052741;28;20096;-71
2022/02/26 05:06:31;;;;;;;7.40;4.40;;;;;;;;;;5053080;28;20033;-71
2022/02/26 05:08:58;;;;;;;9.37;4.47;;;;;;;;;;5053081;28;20033;-71
2022/02/26 05:11:25;;;;;;;7.93;4.20;;;;;;;;;;5052576;28;20111;-71
2022/02/26 05:13:52;;;;;;;8.10;4.50;;;;;;;;;;5051137;28;20025;-71
2022/02/26 05:16:19;;;;;;;10.33;5.20;;;;;;;;;;5047623;28;20548;-71
2022/02/26 05:18:45;;;;;;;9.33;5.13;;;;;;;;;;5047692;28;20025;-71
2022/02/26 05:21:12;;;;;;;12.60;4.90;;;;;;;;;;5047238;28;20025;-70
2022/02/26 05:23:42;;;;;;;9.03;5.47;;;;;;;;;;5048296;28;20021;-73
2022/02/26 05:26:10;;;;;;;11.50;5.83;;;;;;;;;;5052690;28;20029;-69
2022/02/26 05:28:37;;;;;;;7.70;5.37;;;;;;;;;;5052558;28;20481;-71
2022/02/26 05:31:04;;;;;;;9.97;5.83;;;;;;;;;;5052769;28;20025;-69
2022/02/26 05:33:31;;;;;;;10.77;5.00;;;;;;;;;;5052505;28;20029;-74
2022/02/26 05:35:58;;;;;;;9.43;5.80;;;;;;;;;;5049694;28;20033;-73
2022/02/26 05:38:24;;;;;;;8.67;5.70;;;;;;;;;;5047452;28;20353;-71
2022/02/26 05:40:51;;;;;;;7.33;4.40;;;;;;;;;;5047406;28;20044;-71
2022/02/26 05:43:18;;;;;;;9.13;5.50;;;;;;;;;;5047557;28;20043;-71
2022/02/26 05:45:44;;;;;;;8.20;5.57;;;;;;;;;;5047623;28;20036;-73
2022/02/26 05:48:11;;;;;;;8.27;5.30;;;;;;;;;;5052208;28;20498;-69
2022/02/26 05:50:38;;;;;;;9.40;5.30;;;;;;;;;;5051163;28;20390;-73
2022/02/26 05:53:05;;;;;;;9.30;5.97;;;;;;;;;;5051784;28;20437;-69
2022/02/26 05:55:31;;;;;;;10.60;4.73;;;;;;;;;;5052062;28;20055;-70
2022/02/26 05:57:58;;;;;;;8.20;5.90;;;;;;;;;;5051436;28;20120;-73
2022/02/26 06:00:25;;;;;;;7.17;4.87;;;;;;;;;;5047026;28;20082;-75
2022/02/26 06:02:52;;;;;;;9.60;5.50;;;;;;;;;;5048819;28;20025;-70
2022/02/26 06:05:19;;;;;;;8.77;4.93;;;;;;;;;;5056082;28;20035;-73
2022/02/26 06:07:45;;;;;;;8.20;5.33;;;;;;;;;;5047041;28;20027;-70
2022/02/26 06:10:12;;;;;;;8.87;5.00;;;;;;;;;;5051614;28;20087;-72
2022/02/26 06:12:39;;;;;;;8.00;4.73;;;;;;;;;;5052149;28;20022;-70
2022/02/26 06:15:06;;;;;;;7.07;4.30;;;;;;;;;;5052102;28;20020;-72
2022/02/26 06:17:35;;;;;;;7.17;4.43;;;;;;;;;;5050970;28;20439;-70
2022/02/26 06:20:02;;;;;;;7.17;4.37;;;;;;;;;;5050303;28;20032;-72
2022/02/26 06:22:28;;;;;;;9.30;5.17;;;;;;;;;;5046333;28;20029;-72
2022/02/26 06:24:55;;;;;;;7.07;4.90;;;;;;;;;;5046310;28;20032;-72
2022/02/26 06:27:22;;;;;;;8.40;5.10;;;;;;;;;;5045627;28;20037;-70
2022/02/26 06:29:48;;;;;;;10.20;5.60;;;;;;;;;;5046317;28;20070;-70
2022/02/26 06:32:15;;;;;;;8.73;5.33;;;;;;;;;;5051339;28;20028;-70
2022/02/26 06:34:42;;;;;;;9.13;4.80;;;;;;;;;;5051866;28;20029;-70
2022/02/26 06:37:09;;;;;;;8.63;5.17;;;;;;;;;;5051722;28;20467;-70
2022/02/26 06:39:35;;;;;;;6.40;3.90;;;;;;;;;;5051392;28;20112;-70
2022/02/26 06:42:02;;;;;;;9.47;5.40;;;;;;;;;;5051490;28;20032;-70
2022/02/26 06:44:29;;;;;;;9.43;5.70;;;;;;;;;;5046319;28;20021;-70
2022/02/26 06:46:55;;;;;;;14.47;5.03;;;;;;;;;;5046435;28;20692;-70
2022/02/26 06:49:22;;;;;;;10.40;4.37;;;;;;;;;;5049757;28;20721;-70
2022/02/26 06:51:49;;;;;;;8.43;4.73;;;;;;;;;;5049911;28;20025;-70
2022/02/26 06:54:15;;;;;;;7.30;4.20;;;;;;;;;;5054725;28;20029;-70
2022/02/26 06:56:42;;;;;;;9.93;4.77;;;;;;;;;;5055537;28;20100;-70
2022/02/26 06:59:09;;;;;;;12.00;5.50;;;;;;;;;;5055303;28;20024;-70
2022/02/26 07:01:36;;;;;;;10.33;4.87;;;;;;;;;;5055695;28;20534;-70
2022/02/26 07:04:03;;;;;;;8.70;5.03;;;;;;;;;;5055076;28;20032;-70
2022/02/26 07:06:29;;;;;;;13.27;6.57;;;;;;;;;;5050256;28;20037;-70
2022/02/26 07:08:56;;;;;;;14.07;7.57;;;;;;;;;;5050087;28;20037;-70
2022/02/26 07:11:23;;;;;;;10.87;6.23;;;;;;;;;;5049912;28;20059;-70
2022/02/26 07:13:49;;;;;;;12.30;5.97;;;;;;;;;;5049423;28;20033;-69
2022/02/26 07:16:16;;;;;;;7.70;5.00;;;;;;;;;;5053571;28;20490;-70
2022/02/26 07:18:43;;;;;;;11.27;6.77;;;;;;;;;;5055026;28;20076;-71
2022/02/26 07:21:09;;;;;;;11.93;7.33;;;;;;;;;;5055277;28;20029;-70
2022/02/26 07:23:36;;;;;;;10.30;6.30;;;;;;;;;;5055172;28;20096;-70
2022/02/26 07:26:03;;;;;;;8.97;6.07;;;;;;;;;;5054671;28;20069;-70
2022/02/26 07:28:30;;;;;;;8.47;4.90;;;;;;;;;;5050359;28;20040;-70
2022/02/26 07:30:57;;;;;;;18.33;5.93;;;;;;;;;;5049619;28;20025;-70
2022/02/26 07:33:23;;;;;;;9.27;5.57;;;;;;;;;;5049160;28;20039;-70
2022/02/26 07:35:50;;;;;;;7.23;5.07;;;;;;;;;;5049555;28;20095;-69
2022/02/26 07:38:17;;;;;;;13.77;6.53;;;;;;;;;;5052609;28;20491;-70
2022/02/26 07:40:44;;;;;;;11.03;5.47;;;;;;;;;;5054810;28;20021;-69
2022/02/26 07:43:11;;;;;;;8.97;5.57;;;;;;;;;;5054391;28;20025;-70
2022/02/26 07:45:38;;;;;;;8.60;5.17;;;;;;;;;;5054473;28;20410;-70
2022/02/26 07:48:05;;;;;;;9.60;5.97;;;;;;;;;;5054669;28;20025;-70
2022/02/26 07:50:32;;;;;;;7.87;4.93;;;;;;;;;;5050437;28;20498;-69
2022/02/26 07:52:58;;;;;;;9.63;5.03;;;;;;;;;;5049012;28;20063;-70
2022/02/26 07:55:25;;;;;;;12.30;5.50;;;;;;;;;;5049089;28;20033;-70
2022/02/26 07:57:52;;;;;;;6.43;4.07;;;;;;;;;;5049113;28;20104;-70
2022/02/26 08:00:18;;;;;;;7.07;4.50;;;;;;;;;;5051837;28;20491;-70
2022/02/26 08:02:45;;;;;;;9.50;5.70;;;;;;;;;;5054074;28;20029;-69
2022/02/26 08:05:12;;;;;;;13.57;5.30;;;;;;;;;;5053682;28;20036;-70
2022/02/26 08:07:38;;;;;;;10.27;5.13;;;;;;;;;;5054456;28;20021;-69
2022/02/26 08:10:05;;;;;;;9.87;5.50;;;;;;;;;;5054330;28;20032;-70
2022/02/26 08:12:32;;;;;;;10.33;5.93;;;;;;;;;;5050857;28;20025;-70
2022/02/26 08:14:59;;;;;;;7.90;4.23;;;;;;;;;;5048794;28;20032;-70
2022/02/26 08:17:25;;;;;;;9.17;5.20;;;;;;;;;;5047949;28;20526;-70
2022/02/26 08:19:52;;;;;;;9.30;5.03;;;;;;;;;;5048584;28;20106;-70
2022/02/26 08:22:19;;;;;;;10.13;5.30;;;;;;;;;;5050654;28;20025;-69
2022/02/26 08:24:45;;;;;;;12.27;4.70;;;;;;;;;;5053946;28;20376;-70
2022/02/26 08:27:13;;;;;;;9.10;4.87;;;;;;;;;;5053596;28;20033;-70
2022/02/26 08:29:40;;;;;;;8.53;5.37;;;;;;;;;;5053847;28;20487;-70
2022/02/26 08:32:07;;;;;;;7.93;4.90;;;;;;;;;;5053340;28;20107;-70
2022/02/26 08:34:33;;;;;;;9.07;4.87;;;;;;;;;;5050847;28;20033;-70
2022/02/26 08:37:00;;;;;;;9.73;6.10;;;;;;;;;;5048271;28;20101;-69
2022/02/26 08:39:29;;;;;;;15.80;6.10;;;;;;;;;;5047844;28;20025;-69
2022/02/26 08:41:56;;;;;;;11.90;7.63;;;;;;;;;;5048368;28;20036;-69
2022/02/26 08:44:23;;;;;;;14.27;7.67;;;;;;;;;;5049689;28;20025;-70
2022/02/26 08:46:49;;;;;;;8.30;5.30;;;;;;;;;;5053551;28;20124;-69
2022/02/26 08:49:16;;;;;;;10.87;7.30;;;;;;;;;;5053440;28;20083;-69
2022/02/26 08:51:43;;;;;;;9.57;6.13;;;;;;;;;;5053474;28;20032;-70
2022/02/26 08:54:10;;;;;;;8.23;5.07;;;;;;;;;;5053017;28;20380;-70
2022/02/26 08:56:37;;;;;;;8.60;5.87;;;;;;;;;;5050339;28;20481;-69
2022/02/26 08:59:03;;;;;;;11.20;5.77;;;;;;;;;;5048102;28;20017;-69
2022/02/26 09:01:30;;;;;;;9.17;5.27;;;;;;;;;;5047774;28;20043;-69
2022/02/26 09:03:57;;;;;;;11.50;6.47;;;;;;;;;;5048024;28;20032;-69
2022/02/26 09:06:25;;;;;;;11.50;5.47;;;;;;;;;;5049543;28;20120;-69
2022/02/26 09:08:51;;;;;;;15.00;6.13;;;;;;;;;;5052648;28;20442;-69
2022/02/26 09:11:18;;;;;;;11.43;6.20;;;;;;;;;;5052117;28;20051;-69
2022/02/26 09:13:45;;;;;;;9.40;5.30;;;;;;;;;;5053036;28;20037;-69
2022/02/26 09:16:13;;;;;;;8.03;5.50;;;;;;;;;;5053034;28;20083;-69
2022/02/26 09:18:40;;;;;;;11.77;6.40;;;;;;;;;;5050644;28;20033;-69
2022/02/26 09:21:09;;;;;;;10.43;5.07;;;;;;;;;;5047185;28;20033;-69
2022/02/26 09:23:36;;;;;;;10.07;5.33;;;;;;;;;;5047452;28;20356;-70
2022/02/26 09:26:04;;;;;;;10.53;5.70;;;;;;;;;;5047140;28;20395;-69
2022/02/26 09:28:34;;;;;;;13.03;7.97;;;;;;;;;;5048912;28;20269;-69
2022/02/26 09:31:01;;;;;;;9.20;6.03;;;;;;;;;;5052784;28;20029;-69
2022/02/26 09:33:30;;;;;;;9.97;6.27;;;;;;;;;;5052540;28;20395;-69
2022/02/26 09:36:00;;;;;;;8.87;5.30;;;;;;;;;;5052692;28;20084;-69
2022/02/26 09:38:27;;;;;;;10.50;5.90;;;;;;;;;;5052446;28;20269;-69
2022/02/26 09:40:58;;;;;;;9.10;5.63;;;;;;;;;;5050290;28;20346;-69
2022/02/26 09:43:25;;;;;;;8.67;5.50;;;;;;;;;;5046835;28;20333;-69
2022/02/26 09:45:52;;;;;;;9.90;6.23;;;;;;;;;;5046996;28;20036;-69
2022/02/26 09:48:19;;;;;;;9.20;5.37;;;;;;;;;;5047399;28;20357;-70
2022/02/26 09:50:46;;;;;;;9.73;6.07;;;;;;;;;;5048660;28;20740;-70
2022/02/26 09:53:13;;;;;;;9.93;4.90;;;;;;;;;;5052339;28;20262;-69
2022/02/26 09:55:40;;;;;;;11.33;6.00;;;;;;;;;;5051775;28;20029;-69
2022/02/26 09:58:07;;;;;;;8.83;5.53;;;;;;;;;;5052322;28;20254;-69
2022/02/26 10:00:34;;;;;;;8.50;4.90;;;;;;;;;;5051517;28;20060;-70
2022/02/26 10:03:00;;;;;;;7.00;4.57;;;;;;;;;;5050411;28;20355;-69
2022/02/26 10:05:28;;;;;;;8.57;5.17;;;;;;;;;;5046829;28;20266;-69
2022/02/26 10:07:55;;;;;;;7.77;4.60;;;;;;;;;;5046959;28;20262;-69
2022/02/26 10:10:23;;;;;;;8.63;4.47;;;;;;;;;;5046276;28;20276;-69
2022/02/26 10:12:56;;;;;;;9.07;5.60;;;;;;;;;;5048248;28;20261;-69
2022/02/26 10:15:22;;;;;;;8.70;5.20;;;;;;;;;;5052179;28;20775;-69
2022/02/26 10:17:58;;;;;;;7.23;4.77;;;;;;;;;;5051838;28;20273;-69
2022/02/26 10:20:26;;;;;;;7.00;3.83;;;;;;;;;;5052186;28;20341;-69
2022/02/26 10:22:53;;;;;;;7.50;4.90;;;;;;;;;;5053813;28;20265;-69
2022/02/26 10:25:21;;;;;;;9.50;5.03;;;;;;;;;;5053890;28;20262;-69
2022/02/26 10:27:52;;;;;;;8.87;5.40;;;;;;;;;;5050753;28;20258;-69
2022/02/26 10:30:23;;;;;;;8.07;5.17;;;;;;;;;;5050559;28;20340;-69
2022/02/26 10:33:06;;;;;;;7.70;5.13;;;;;;;;;;5050904;28;20387;-69
2022/02/26 10:35:37;;;;;;;8.63;5.07;;;;;;;;;;5052569;28;20294;-69
2022/02/26 10:38:20;;;;;;;7.43;4.70;;;;;;;;;;5055935;28;20736;-69
2022/02/26 10:40:54;;;;;;;10.30;4.83;;;;;;;;;;5055901;28;20246;-69
2022/02/26 10:43:37;;;;;;;6.40;3.97;;;;;;;;;;5055296;28;20254;-69
2022/02/26 10:46:14;;;;;;;7.77;4.80;;;;;;;;;;5055472;28;20037;-69
2022/02/26 10:48:44;;;;;;;7.43;4.27;;;;;;;;;;5050893;28;20262;-69
2022/02/26 10:51:17;;;;;;;5.87;3.83;;;;;;;;;;5050590;28;20307;-69
2022/02/26 10:53:44;;;;;;;9.73;4.73;;;;;;;;;;5050412;28;20341;-69
2022/02/26 10:56:11;;;;;;;6.90;4.80;;;;;;;;;;5050540;28;20281;-69
2022/02/26 10:58:38;;;;;;;13.13;5.03;;;;;;;;;;5054249;28;20356;-69
2022/02/26 11:01:06;;;;;;;13.40;5.80;;;;;;;;;;5055581;28;20284;-69
2022/02/26 11:03:34;;;;;;;10.67;5.43;;;;;;;;;;5055433;28;20258;-69
2022/02/26 11:06:01;;;;;;;10.03;5.33;;;;;;;;;;5054958;28;20294;-69
2022/02/26 11:08:30;;;;;;;8.10;4.40;;;;;;;;;;5055221;28;20307;-69
2022/02/26 11:10:58;;;;;;;11.13;5.43;;;;;;;;;;5050070;28;20646;-69
2022/02/26 11:13:25;;;;;;;8.60;5.30;;;;;;;;;;5049989;28;20269;-69
2022/02/26 11:15:57;;;;;;;8.93;5.57;;;;;;;;;;5050064;28;20261;-69
2022/02/26 11:18:25;;;;;;;8.87;4.93;;;;;;;;;;5049691;28;20277;-69
2022/02/26 11:20:52;;;;;;;9.87;4.73;;;;;;;;;;5053844;28;20254;-69
2022/02/26 11:23:19;;;;;;;9.33;4.83;;;;;;;;;;5054958;28;20270;-69
2022/02/26 11:25:46;;;;;;;7.83;4.53;;;;;;;;;;5054690;28;20305;-69
2022/02/26 11:28:14;;;;;;;8.73;4.50;;;;;;;;;;5055092;28;20254;-69
2022/02/26 11:30:46;;;;;;;7.20;4.30;;;;;;;;;;5054979;28;20326;-69
2022/02/26 11:33:13;;;;;;;6.17;3.90;;;;;;;;;;5049234;28;20261;-69
2022/02/26 11:35:51;;;;;;;7.03;3.73;;;;;;;;;;5048772;28;20265;-69
2022/02/26 11:38:18;;;;;;;7.60;4.30;;;;;;;;;;5049629;28;20337;-69
2022/02/26 11:40:49;;;;;;;11.43;5.97;;;;;;;;;;5049341;28;20265;-69
2022/02/26 11:43:35;;;;;;;10.97;4.33;;;;;;;;;;5054179;28;20810;-69
2022/02/26 11:46:18;;;;;;;9.37;5.30;;;;;;;;;;5054236;28;20788;-69
2022/02/26 11:48:45;;;;;;;7.03;4.00;;;;;;;;;;5054716;28;20266;-69
2022/02/26 11:51:14;;;;;;;7.97;4.17;;;;;;;;;;5054425;28;20745;-69
2022/02/26 11:53:45;;;;;;;8.63;5.17;;;;;;;;;;5053162;28;20311;-69
2022/02/26 11:56:12;;;;;;;7.63;4.43;;;;;;;;;;5049047;28;20669;-69
2022/02/26 11:58:39;;;;;;;7.57;4.80;;;;;;;;;;5048870;28;20273;-69
2022/02/26 12:01:06;;;;;;;8.10;4.80;;;;;;;;;;5048900;28;20258;-69
2022/02/26 12:03:49;;;;;;;6.70;4.03;;;;;;;;;;5049655;28;20260;-69
2022/02/26 12:06:16;;;;;;;10.97;4.30;;;;;;;;;;5053489;28;20435;-69
2022/02/26 12:08:47;;;;;;;9.57;4.43;;;;;;;;;;5054236;28;20333;-69
2022/02/26 12:11:26;;;;;;;10.77;5.07;;;;;;;;;;5053885;28;20408;-69
2022/02/26 12:13:57;;;;;;;6.93;4.73;;;;;;;;;;5054227;28;20254;-69
2022/02/26 12:16:25;;;;;;;7.30;4.00;;;;;;;;;;5051617;28;20606;-68
2022/02/26 12:18:56;;;;;;;8.10;4.10;;;;;;;;;;5048588;28;20270;-69
2022/02/26 12:21:24;;;;;;;7.17;3.87;;;;;;;;;;5048600;28;20407;-69
2022/02/26 12:24:09;;;;;;;6.13;3.57;;;;;;;;;;5048693;28;20261;-69
2022/02/26 12:26:46;;;;;;;5.95;3.63;;;;;;;;;;5051165;28;20278;-68
2022/02/26 12:29:22;;;;;;;5.63;3.50;;;;;;;;;;5054040;28;20463;-69
2022/02/26 12:32:15;;;;;;;6.57;3.47;;;;;;;;;;5033982;28;20320;-69
2022/02/26 12:34:55;;;;;;;6.43;3.37;;;;;;;;;;5017525;28;20323;-69
2022/02/26 12:37:26;;;;;;;7.87;3.60;;;;;;;;;;5033901;28;20372;-69
2022/02/26 12:40:00;;;;;;;8.97;4.63;;;;;;;;;;5028518;28;20255;-69
2022/02/26 12:42:31;;;;;;;5.93;3.47;;;;;;;;;;5036896;28;20293;-69
2022/02/26 12:44:59;;;;;;;6.33;3.77;;;;;;;;;;5047693;28;20096;-69
2022/02/26 12:47:26;;;;;;;9.30;4.17;;;;;;;;;;5047791;28;20290;-69
2022/02/26 12:49:53;;;;;;;7.60;3.80;;;;;;;;;;5053104;28;20791;-68
2022/02/26 12:52:20;;;;;;;6.73;3.57;;;;;;;;;;5053306;28;20311;-68
2022/02/26 12:54:47;;;;;;;7.00;3.57;;;;;;;;;;5053043;28;20874;-69
2022/02/26 12:57:14;;;;;;;6.93;3.40;;;;;;;;;;5053441;28;20286;-69
2022/02/26 12:59:42;;;;;;;7.40;4.23;;;;;;;;;;5052327;28;20269;-69
2022/02/26 13:02:09;;;;;;;7.30;3.17;;;;;;;;;;5047515;28;20270;-69
2022/02/26 13:04:37;;;;;;;5.73;2.97;;;;;;;;;;5048351;28;20258;-69
2022/02/26 13:07:06;;;;;;;6.30;3.50;;;;;;;;;;5047860;28;20677;-69
2022/02/26 13:09:34;;;;;;;9.60;3.07;;;;;;;;;;5047569;28;20748;-68
2022/02/26 13:12:01;;;;;;;5.30;3.40;;;;;;;;;;5052443;28;20277;-69
2022/02/26 13:14:28;;;;;;;4.50;2.80;;;;;;;;;;5052557;28;20756;-68
2022/02/26 13:17:03;;;;;;;8.23;3.70;;;;;;;;;;5053077;28;20254;-69
2022/02/26 13:19:31;;;;;;;7.93;3.10;;;;;;;;;;5052264;28;20399;-69
2022/02/26 13:21:58;;;;;;;6.97;3.07;;;;;;;;;;5052784;28;20025;-68
2022/02/26 13:24:35;;;;;;;6.17;3.70;;;;;;;;;;5047619;28;20293;-69
2022/02/26 13:27:05;;;;;;;6.87;3.70;;;;;;;;;;5047689;28;20286;-69
2022/02/26 13:29:36;;;;;;;5.83;3.57;;;;;;;;;;5047210;28;20260;-69
2022/02/26 13:32:03;;;;;;;9.73;3.60;;;;;;;;;;5047361;28;20289;-69
2022/02/26 13:34:29;;;;;;;10.50;3.37;;;;;;;;;;5052641;28;20739;-69
2022/02/26 13:36:56;;;;;;;7.13;4.40;;;;;;;;;;5052656;28;20250;-69
2022/02/26 13:39:23;;;;;;;10.17;5.07;;;;;;;;;;5052375;28;20350;-69
2022/02/26 13:42:10;;;;;;;9.13;4.60;;;;;;;;;;5052208;28;20258;-69
2022/02/26 13:44:38;;;;;;;13.77;4.40;;;;;;;;;;5051318;28;20266;-69
2022/02/26 13:47:08;;;;;;;12.13;4.13;;;;;;;;;;5047051;28;20286;-69
2022/02/26 13:49:36;;;;;;;9.33;5.70;;;;;;;;;;5046873;28;20262;-69
2022/02/26 13:52:06;;;;;;;8.43;4.83;;;;;;;;;;5047336;28;20258;-69
2022/02/26 13:54:33;;;;;;;7.83;4.37;;;;;;;;;;5047849;28;20554;-69
2022/02/26 13:57:06;;;;;;;7.00;3.70;;;;;;;;;;5051984;28;20344;-69
2022/02/26 13:59:33;;;;;;;12.87;4.80;;;;;;;;;;5052151;28;20258;-69
2022/02/26 14:02:00;;;;;;;10.03;4.80;;;;;;;;;;5052349;28;20025;-69
2022/02/26 14:04:27;;;;;;;9.43;5.00;;;;;;;;;;5051871;28;20029;-70
2022/02/26 14:06:55;;;;;;;8.47;5.13;;;;;;;;;;5050385;28;20457;-69
2022/02/26 14:09:26;;;;;;;6.53;4.13;;;;;;;;;;5046841;28;20387;-70
2022/02/26 14:11:54;;;;;;;7.30;4.43;;;;;;;;;;5046911;28;20352;-69
2022/02/26 14:14:28;;;;;;;8.37;4.67;;;;;;;;;;5046852;28;20036;-70
2022/02/26 14:17:00;;;;;;;8.07;4.80;;;;;;;;;;5047967;28;20021;-69
2022/02/26 14:19:34;;;;;;;5.90;3.50;;;;;;;;;;5050938;28;20377;-70
2022/02/26 14:22:01;;;;;;;6.60;3.20;;;;;;;;;;5052196;28;20096;-69
2022/02/26 14:24:29;;;;;;;6.10;3.00;;;;;;;;;;5051710;28;20033;-70
2022/02/26 14:26:59;;;;;;;8.20;3.10;;;;;;;;;;5050670;28;20461;-70
2022/02/26 14:29:27;;;;;;;5.50;2.80;;;;;;;;;;5049674;28;20033;-70
2022/02/26 14:32:00;;;;;;;7.60;2.53;;;;;;;;;;5047046;28;20026;-70
2022/02/26 14:34:27;;;;;;;5.53;2.43;;;;;;;;;;5046326;28;20107;-69
2022/02/26 14:36:54;;;;;;;3.67;2.10;;;;;;;;;;5046738;28;20021;-70
2022/02/26 14:39:21;;;;;;;7.30;3.60;;;;;;;;;;5048802;28;20036;-70
2022/02/26 14:41:52;;;;;;;8.27;2.50;;;;;;;;;;5051445;28;20025;-70
2022/02/26 14:44:23;;;;;;;6.73;2.60;;;;;;;;;;5051790;28;20059;-70
2022/02/26 14:46:50;;;;;;;3.30;2.00;;;;;;;;;;5050620;28;20055;-70
2022/02/26 14:49:17;;;;;;;3.73;2.03;;;;;;;;;;5051827;28;20096;-71
2022/02/26 14:51:47;;;;;;;7.07;2.70;;;;;;;;;;5048871;28;20029;-71
2022/02/26 14:54:21;;;;;;;5.60;2.00;;;;;;;;;;5046659;28;20025;-72
2022/02/26 14:56:48;;;;;;;3.57;1.90;;;;;;;;;;5046502;28;20033;-70
2022/02/26 14:59:15;;;;;;;4.23;2.43;;;;;;;;;;5046499;28;20479;-71
2022/02/26 15:01:42;;;;;;;5.10;2.33;;;;;;;;;;5048418;28;20380;-70
2022/02/26 15:04:08;;;;;;;3.70;2.10;;;;;;;;;;5051556;28;20057;-71
2022/02/26 15:06:35;;;;;;;5.00;2.00;;;;;;;;;;5049882;28;20423;-70
2022/02/26 15:09:03;;;;;;;3.23;2.03;;;;;;;;;;5052313;28;20037;-72
2022/02/26 15:11:30;;;;;;;3.17;1.60;;;;;;;;;;5055306;28;20028;-72
2022/02/26 15:13:57;;;;;;;5.23;3.03;;;;;;;;;;5052793;28;20394;-72
2022/02/26 15:16:24;;;;;;;3.53;2.20;;;;;;;;;;5049695;28;20072;-72
2022/02/26 15:18:51;;;;;;;7.13;2.60;;;;;;;;;;5050015;28;20036;-72
2022/02/26 15:21:18;;;;;;;8.37;2.97;;;;;;;;;;5049874;28;20033;-71
2022/02/26 15:23:46;;;;;;;8.13;2.70;;;;;;;;;;5051702;28;20033;-72
2022/02/26 15:26:12;;;;;;;5.00;2.87;;;;;;;;;;5054729;28;20033;-71
2022/02/26 15:28:39;;;;;;;5.77;2.67;;;;;;;;;;5054826;28;20484;-71
2022/02/26 15:31:06;;;;;;;5.37;2.80;;;;;;;;;;5054900;28;20480;-71
2022/02/26 15:33:33;;;;;;;4.00;2.20;;;;;;;;;;5054963;28;20017;-72
2022/02/26 15:36:01;;;;;;;6.33;2.20;;;;;;;;;;5052517;28;20025;-72
2022/02/26 15:38:28;;;;;;;3.70;2.03;;;;;;;;;;5049703;28;20052;-72
2022/02/26 15:40:55;;;;;;;5.50;2.03;;;;;;;;;;5048757;28;20373;-71
2022/02/26 15:43:21;;;;;;;5.37;2.70;;;;;;;;;;5049583;28;20083;-72
2022/02/26 15:45:48;;;;;;;21.73;11.37;;;;;;;;;;5051239;28;20029;-72
2022/02/26 15:48:15;;;;;;;108.13;52.93;;;;;;;;;;5054582;28;20042;-72
2022/02/26 15:50:43;;;;;;;7.97;4.57;;;;;;;;;;5054593;28;20411;-71
2022/02/26 15:53:10;;;;;;;7.60;2.00;;;;;;;;;;5054381;28;20484;-72
2022/02/26 15:55:36;;;;;;;41.97;14.80;;;;;;;;;;5054147;28;20127;-72
2022/02/26 15:58:03;;;;;;;4.63;2.20;;;;;;;;;;5051975;28;20032;-73
2022/02/26 16:00:30;;;;;;;5.47;2.47;;;;;;;;;;5049126;28;20082;-72
2022/02/26 16:02:56;;;;;;;2.67;1.80;;;;;;;;;;5049209;28;20032;-72
2022/02/26 16:05:23;;;;;;;6.00;2.27;;;;;;;;;;5048809;28;20032;-73
2022/02/26 16:07:50;;;;;;;3.97;1.40;;;;;;;;;;5050367;28;20112;-72
2022/02/26 16:10:17;;;;;;;2.13;1.00;;;;;;;;;;5054399;28;20021;-72
2022/02/26 16:12:44;;;;;;;2.80;1.20;;;;;;;;;;5053685;28;20148;-72
2022/02/26 16:15:11;;;;;;;4.90;1.40;;;;;;;;;;5053865;28;20027;-73
2022/02/26 16:17:37;;;;;;;4.13;1.40;;;;;;;;;;5054236;28;20079;-72
2022/02/26 16:20:08;;;;;;;2.57;1.60;;;;;;;;;;5052038;28;20370;-73
2022/02/26 16:22:34;;;;;;;3.23;1.37;;;;;;;;;;5048597;28;20029;-72
2022/02/26 16:25:01;;;;;;;3.93;1.60;;;;;;;;;;5048656;28;20479;-72
2022/02/26 16:27:28;;;;;;;2.63;1.30;;;;;;;;;;5047847;28;20040;-73
2022/02/26 16:29:55;;;;;;;2.90;1.50;;;;;;;;;;5049741;28;20029;-72
2022/02/26 16:32:22;;;;;;;2.30;1.47;;;;;;;;;;5053746;28;20024;-72
2022/02/26 16:34:49;;;;;;;3.13;1.50;;;;;;;;;;5053842;28;20021;-72
2022/02/26 16:37:15;;;;;;;2.53;1.27;;;;;;;;;;5053661;28;20017;-72
2022/02/26 16:39:44;;;;;;;2.20;1.20;;;;;;;;;;5053344;28;20048;-73
2022/02/26 16:42:11;;;;;;;3.40;1.47;;;;;;;;;;5051998;28;20025;-72
2022/02/26 16:44:37;;;;;;;2.77;1.17;;;;;;;;;;5048161;28;20483;-72
2022/02/26 16:47:04;;;;;;;2.50;1.40;;;;;;;;;;5048289;28;20352;-72
2022/02/26 16:49:31;;;;;;;5.80;1.40;;;;;;;;;;5047973;28;20100;-72
2022/02/26 16:51:58;;;;;;;3.50;1.30;;;;;;;;;;5048110;28;20024;-72
2022/02/26 16:54:25;;;;;;;2.50;1.30;;;;;;;;;;5053015;28;20048;-72
2022/02/26 16:56:51;;;;;;;5.47;1.55;;;;;;;;;;5053363;28;20052;-72
2022/02/26 16:59:18;;;;;;;2.50;1.40;;;;;;;;;;5053107;28;20357;-72
2022/02/26 17:01:45;;;;;;;1.75;1.05;;;;;;;;;;5053310;28;20107;-72
2022/02/26 17:04:12;;;;;;;3.05;1.70;;;;;;;;;;5051835;28;20403;-73
2022/02/26 17:06:39;;;;;;;3.78;1.23;;;;;;;;;;5047378;28;20021;-72
2022/02/26 17:09:06;;;;;;;4.07;1.55;;;;;;;;;;5047862;28;20025;-73
2022/02/26 17:11:32;;;;;;;4.57;1.52;;;;;;;;;;5047750;28;20024;-72
2022/02/26 17:13:59;;;;;;;2.50;1.30;;;;;;;;;;5047665;28;20479;-72
2022/02/26 17:16:26;;;;;;;3.10;1.33;;;;;;;;;;5052951;28;20025;-73
2022/02/26 17:18:52;;;;;;;4.22;1.48;;;;;;;;;;5052660;28;20593;-72
2022/02/26 17:21:21;;;;;;;5.43;1.50;;;;;;;;;;5052820;28;20033;-72
2022/02/26 17:23:48;;;;;;;6.20;2.13;;;;;;;;;;5052730;28;20111;-72
2022/02/26 17:26:15;;;;;;;1.85;1.38;;;;;;;;;;5052062;28;20051;-72
2022/02/26 17:28:42;;;;;;;3.10;0.90;;;;;;;;;;5047048;28;20040;-72
2022/02/26 17:31:10;;;;;;;8.90;2.10;;;;;;;;;;5046780;28;20021;-73
2022/02/26 17:33:37;;;;;;;3.70;1.40;;;;;;;;;;5046932;28;20028;-73
2022/02/26 17:36:04;;;;;;;2.80;1.38;;;;;;;;;;5047383;28;20025;-72
2022/02/26 17:38:30;;;;;;;6.63;1.38;;;;;;;;;;5052537;28;20033;-72
2022/02/26 17:40:57;;;;;;;6.45;1.40;;;;;;;;;;5051977;28;20104;-72
2022/02/26 17:43:24;;;;;;;2.92;1.20;;;;;;;;;;5052443;28;20032;-71
2022/02/26 17:45:50;;;;;;;5.88;1.35;;;;;;;;;;5052160;28;20029;-72
2022/02/26 17:48:17;;;;;;;4.85;1.33;;;;;;;;;;5052358;28;20021;-71
2022/02/26 17:50:44;;;;;;;7.32;1.27;;;;;;;;;;5047027;28;20035;-73
2022/02/26 17:53:11;;;;;;;4.03;1.05;;;;;;;;;;5046625;28;20487;-73
2022/02/26 17:55:37;;;;;;;2.95;1.20;;;;;;;;;;5047216;28;20025;-71